Time;durP1;ratioP1;P1;durP2;ratioP2;P2;SDS_P1;SDS_P2;PMS_P1;PMS_P2;Temp;Humidity;BMP_temperature;BMP_pressure;BME280_temperature;BME280_humidity;BME280_pressure;Samples;Min_cycle;Max_cycle;Signal;HPM_P1;HPM_P2
2022/12/25 00:00:54;;;;;;;34.57;13.80;;;;;;;;;;6232146;23;20198;-87
2022/12/25 00:03:20;;;;;;;33.90;14.73;;;;;;;;;;6233912;23;20158;-87
2022/12/25 00:05:45;;;;;;;37.43;13.23;;;;;;;;;;6234297;23;20148;-87
2022/12/25 00:08:10;;;;;;;29.60;13.27;;;;;;;;;;6234335;23;20183;-86
2022/12/25 00:10:36;;;;;;;37.77;13.40;;;;;;;;;;6235112;23;20250;-87
2022/12/25 00:13:01;;;;;;;30.23;13.13;;;;;;;;;;6235198;23;20151;-87
2022/12/25 00:15:27;;;;;;;37.03;15.03;;;;;;;;;;6233456;23;20199;-88
2022/12/25 00:17:52;;;;;;;30.10;14.80;;;;;;;;;;6233759;23;20151;-87
2022/12/25 00:20:18;;;;;;;32.70;14.93;;;;;;;;;;6233062;23;20148;-87
2022/12/25 00:22:43;;;;;;;34.37;14.83;;;;;;;;;;6232784;23;20148;-86
2022/12/25 00:25:09;;;;;;;34.53;14.00;;;;;;;;;;6230360;23;20159;-87
2022/12/25 00:27:36;;;;;;;35.70;14.60;;;;;;;;;;6233602;23;20163;-86
2022/12/25 00:30:02;;;;;;;28.50;14.07;;;;;;;;;;6232533;23;20148;-87
2022/12/25 00:32:27;;;;;;;32.87;13.43;;;;;;;;;;6230080;23;20433;-86
2022/12/25 00:34:53;;;;;;;25.47;12.50;;;;;;;;;;6230221;23;20406;-86
2022/12/25 00:37:18;;;;;;;32.53;13.70;;;;;;;;;;6231226;23;20155;-85
2022/12/25 00:39:44;;;;;;;37.73;13.80;;;;;;;;;;6230320;23;20152;-86
2022/12/25 00:42:18;;;;;;;35.03;13.30;;;;;;;;;;6231367;23;20164;-86
2022/12/25 00:44:44;;;;;;;27.27;12.50;;;;;;;;;;6230762;23;20151;-87
2022/12/25 00:47:10;;;;;;;26.03;12.67;;;;;;;;;;6231393;23;20390;-86
2022/12/25 00:49:35;;;;;;;33.30;12.83;;;;;;;;;;6230824;23;20383;-87
2022/12/25 00:52:01;;;;;;;26.10;13.20;;;;;;;;;;6231930;23;20179;-87
2022/12/25 00:54:26;;;;;;;25.63;12.03;;;;;;;;;;6233676;23;20218;-87
2022/12/25 00:56:51;;;;;;;43.10;13.87;;;;;;;;;;6235699;23;20148;-87
2022/12/25 00:59:17;;;;;;;36.90;12.80;;;;;;;;;;6233190;23;20176;-87
2022/12/25 01:01:43;;;;;;;31.90;11.77;;;;;;;;;;6233272;23;20246;-86
2022/12/25 01:04:09;;;;;;;30.87;11.60;;;;;;;;;;6233090;23;20216;-87
2022/12/25 01:06:34;;;;;;;40.13;13.93;;;;;;;;;;6234261;23;20151;-87
2022/12/25 01:11:44;;;;;;;29.20;13.63;;;;;;;;;;6234711;23;20198;-86
2022/12/25 01:14:09;;;;;;;27.20;12.37;;;;;;;;;;6231915;23;20423;-87
2022/12/25 01:16:35;;;;;;;33.13;12.90;;;;;;;;;;6232658;23;20155;-87
2022/12/25 01:19:00;;;;;;;35.77;13.80;;;;;;;;;;6229150;23;20484;-84
2022/12/25 01:21:26;;;;;;;36.93;13.40;;;;;;;;;;6223710;23;20517;-83
2022/12/25 01:23:52;;;;;;;24.27;11.67;;;;;;;;;;6251942;23;20151;-84
2022/12/25 01:26:18;;;;;;;35.47;12.47;;;;;;;;;;6226296;23;20144;-85
2022/12/25 01:28:43;;;;;;;26.17;11.67;;;;;;;;;;6223301;23;20140;-85
2022/12/25 01:31:10;;;;;;;24.17;11.20;;;;;;;;;;6226790;23;20387;-85
2022/12/25 01:33:36;;;;;;;27.13;11.50;;;;;;;;;;6224908;23;20151;-85
2022/12/25 01:36:01;;;;;;;27.23;11.30;;;;;;;;;;6226345;23;20703;-85
2022/12/25 01:38:26;;;;;;;26.37;12.73;;;;;;;;;;6227927;23;20148;-85
2022/12/25 01:40:52;;;;;;;26.77;12.07;;;;;;;;;;6227190;23;20626;-85
2022/12/25 01:43:28;;;;;;;21.60;10.27;;;;;;;;;;6227302;23;20246;-84
2022/12/25 01:45:53;;;;;;;34.53;12.30;;;;;;;;;;6229486;23;20151;-85
2022/12/25 01:48:22;;;;;;;25.70;12.13;;;;;;;;;;6228879;23;20398;-84
2022/12/25 01:50:52;;;;;;;22.33;10.70;;;;;;;;;;6227284;23;20187;-85
2022/12/25 01:53:17;;;;;;;26.20;11.10;;;;;;;;;;6225345;23;20884;-84
2022/12/25 01:55:44;;;;;;;23.03;11.00;;;;;;;;;;6225387;23;20411;-84
2022/12/25 01:58:09;;;;;;;24.10;10.83;;;;;;;;;;6225439;23;20148;-84
2022/12/25 02:00:35;;;;;;;28.07;12.07;;;;;;;;;;6226114;23;20885;-86
2022/12/25 02:03:00;;;;;;;21.97;11.13;;;;;;;;;;6226935;23;20167;-85
2022/12/25 02:05:27;;;;;;;27.97;12.00;;;;;;;;;;6229926;23;20204;-86
2022/12/25 02:07:54;;;;;;;24.23;12.50;;;;;;;;;;6229004;23;20163;-86
2022/12/25 02:10:19;;;;;;;22.00;11.90;;;;;;;;;;6226600;23;20382;-87
2022/12/25 02:12:46;;;;;;;27.43;13.43;;;;;;;;;;6228846;23;20461;-86
2022/12/25 02:15:13;;;;;;;21.87;12.50;;;;;;;;;;6228555;23;20176;-86
2022/12/25 02:17:39;;;;;;;29.03;12.17;;;;;;;;;;6230098;23;20391;-86
2022/12/25 02:20:23;;;;;;;30.10;12.37;;;;;;;;;;6230186;23;20729;-88
2022/12/25 02:23:12;;;;;;;30.60;12.90;;;;;;;;;;6227497;23;20152;-86
2022/12/25 02:25:47;;;;;;;25.37;12.63;;;;;;;;;;6229157;23;20367;-86
2022/12/25 02:28:12;;;;;;;26.47;12.70;;;;;;;;;;6227493;23;20434;-85
2022/12/25 02:30:48;;;;;;;26.17;12.50;;;;;;;;;;6227393;23;20417;-85
2022/12/25 02:36:03;;;;;;;29.27;13.00;;;;;;;;;;6229487;23;20621;-85
2022/12/25 02:38:35;;;;;;;27.37;12.27;;;;;;;;;;6226277;23;20375;-84
2022/12/25 02:41:04;;;;;;;32.43;12.67;;;;;;;;;;6227776;23;20395;-85
2022/12/25 03:08:26;;;;;;;24.50;11.70;;;;;;;;;;6229805;23;20366;-86
2022/12/25 03:16:49;;;;;;;26.13;12.67;;;;;;;;;;6228927;23;20358;-86
2022/12/25 03:16:51;;;;;;;31.27;11.87;;;;;;;;;;6230900;23;20356;-87
2022/12/25 03:27:33;;;;;;;30.30;11.17;;;;;;;;;;6236083;23;20446;-86
2022/12/25 03:32:48;;;;;;;24.50;10.77;;;;;;;;;;6235273;23;20355;-87
2022/12/25 03:35:24;;;;;;;26.10;10.93;;;;;;;;;;6234260;23;20411;-88
2022/12/25 04:36:08;;;;;;;26.70;11.20;;;;;;;;;;6235852;23;20377;-86
2022/12/25 04:38:34;;;;;;;22.87;11.37;;;;;;;;;;6234907;23;20363;-86
2022/12/25 04:41:00;;;;;;;26.53;10.77;;;;;;;;;;6236221;23;20387;-86
2022/12/25 04:43:25;;;;;;;21.50;11.03;;;;;;;;;;6235681;23;20151;-87
2022/12/25 04:45:53;;;;;;;23.73;10.90;;;;;;;;;;6237580;23;20583;-87
2022/12/25 04:48:19;;;;;;;22.40;9.97;;;;;;;;;;6236873;23;20541;-87
2022/12/25 04:50:45;;;;;;;27.30;11.93;;;;;;;;;;6237526;23;20391;-87
2022/12/25 04:53:10;;;;;;;24.80;11.13;;;;;;;;;;6236900;23;20159;-84
2022/12/25 04:55:36;;;;;;;27.57;11.97;;;;;;;;;;6238260;23;20221;-87
2022/12/25 04:58:01;;;;;;;26.30;11.20;;;;;;;;;;6237432;23;20151;-89
2022/12/25 05:00:27;;;;;;;28.63;11.60;;;;;;;;;;6236952;23;20144;-87
2022/12/25 05:02:52;;;;;;;25.93;11.70;;;;;;;;;;6236173;23;20191;-87
2022/12/25 05:05:17;;;;;;;35.73;12.70;;;;;;;;;;6236579;23;20161;-87
2022/12/25 05:07:43;;;;;;;33.63;12.63;;;;;;;;;;6235771;23;20156;-87
2022/12/25 05:10:09;;;;;;;25.67;11.67;;;;;;;;;;6235298;23;20159;-87
2022/12/25 05:12:34;;;;;;;31.37;12.87;;;;;;;;;;6236584;23;20172;-87
2022/12/25 05:15:00;;;;;;;27.37;12.63;;;;;;;;;;6236150;23;20190;-87
2022/12/25 05:17:29;;;;;;;28.30;12.17;;;;;;;;;;6236585;23;20177;-87
2022/12/25 05:19:54;;;;;;;30.90;12.80;;;;;;;;;;6237172;23;20144;-88
2022/12/25 05:22:20;;;;;;;32.50;12.77;;;;;;;;;;6236523;23;20395;-87
2022/12/25 05:24:46;;;;;;;33.40;12.53;;;;;;;;;;6237428;23;20529;-88
2022/12/25 05:27:11;;;;;;;26.17;12.90;;;;;;;;;;6236431;23;20162;-87
2022/12/25 05:29:37;;;;;;;34.23;13.40;;;;;;;;;;6236245;23;20409;-87
2022/12/25 05:32:02;;;;;;;38.77;13.53;;;;;;;;;;6236852;23;20167;-87
2022/12/25 05:34:28;;;;;;;30.93;12.83;;;;;;;;;;6236612;23;20187;-87
2022/12/25 05:36:55;;;;;;;35.37;13.50;;;;;;;;;;6238136;23;20144;-87
2022/12/25 05:39:20;;;;;;;31.63;13.00;;;;;;;;;;6235652;23;20140;-87
2022/12/25 05:41:46;;;;;;;30.07;13.37;;;;;;;;;;6236983;23;20786;-86
2022/12/25 05:44:13;;;;;;;45.93;16.00;;;;;;;;;;6236924;23;20152;-87
2022/12/25 05:46:39;;;;;;;39.77;14.90;;;;;;;;;;6236166;23;20152;-87
2022/12/25 05:49:04;;;;;;;36.50;14.97;;;;;;;;;;6236420;23;20434;-86
2022/12/25 05:51:30;;;;;;;32.13;16.03;;;;;;;;;;6236675;23;20180;-87
2022/12/25 05:53:56;;;;;;;37.77;15.90;;;;;;;;;;6237004;23;20182;-87
2022/12/25 05:56:21;;;;;;;40.40;15.57;;;;;;;;;;6236790;23;20231;-87
2022/12/25 05:58:47;;;;;;;42.97;17.77;;;;;;;;;;6235155;23;20154;-87
2022/12/25 06:01:14;;;;;;;38.67;18.27;;;;;;;;;;6232287;23;20179;-86
2022/12/25 06:03:39;;;;;;;40.20;18.53;;;;;;;;;;6233486;23;20140;-87
2022/12/25 06:06:06;;;;;;;54.50;19.37;;;;;;;;;;6234369;23;20439;-87
2022/12/25 06:08:33;;;;;;;48.90;19.03;;;;;;;;;;6232372;23;20178;-86
2022/12/25 06:10:58;;;;;;;49.40;19.50;;;;;;;;;;6234059;23;20410;-87
2022/12/25 06:13:24;;;;;;;34.47;16.60;;;;;;;;;;6234550;23;20407;-87
2022/12/25 06:15:50;;;;;;;47.60;19.53;;;;;;;;;;6260194;23;20182;-87
2022/12/25 06:18:16;;;;;;;48.87;19.97;;;;;;;;;;6233309;23;20375;-86
2022/12/25 06:20:41;;;;;;;51.47;18.80;;;;;;;;;;6233172;23;20172;-86
2022/12/25 06:23:07;;;;;;;44.10;19.17;;;;;;;;;;6234927;23;20208;-85
2022/12/25 06:25:32;;;;;;;45.17;19.83;;;;;;;;;;6234909;23;20195;-86
2022/12/25 06:27:58;;;;;;;49.13;20.67;;;;;;;;;;6235205;23;20159;-87
2022/12/25 06:30:23;;;;;;;44.23;20.10;;;;;;;;;;6235429;23;20148;-86
2022/12/25 06:32:49;;;;;;;49.87;19.00;;;;;;;;;;6237336;23;20622;-87
2022/12/25 06:35:15;;;;;;;46.53;19.40;;;;;;;;;;6237047;23;20176;-87
2022/12/25 06:37:41;;;;;;;48.20;24.00;;;;;;;;;;6237065;23;20379;-87
2022/12/25 06:40:08;;;;;;;45.27;21.17;;;;;;;;;;6236123;23;20430;-87
2022/12/25 06:42:34;;;;;;;43.47;21.77;;;;;;;;;;6236102;23;20467;-87
2022/12/25 06:45:00;;;;;;;40.80;18.50;;;;;;;;;;6235611;23;20375;-87
2022/12/25 06:47:25;;;;;;;42.67;20.43;;;;;;;;;;6236457;23;20370;-87
2022/12/25 06:49:51;;;;;;;45.13;20.40;;;;;;;;;;6237409;23;20186;-87
2022/12/25 06:52:17;;;;;;;47.27;21.07;;;;;;;;;;6233846;23;20171;-87
2022/12/25 06:54:42;;;;;;;46.40;21.13;;;;;;;;;;6232482;23;20501;-81
2022/12/25 06:57:08;;;;;;;45.13;20.63;;;;;;;;;;6235842;23;20203;-89
2022/12/25 06:59:34;;;;;;;48.63;21.10;;;;;;;;;;6229951;23;20186;-85
2022/12/25 07:01:59;;;;;;;45.43;19.77;;;;;;;;;;6230811;23;20418;-85
2022/12/25 07:04:34;;;;;;;52.90;21.63;;;;;;;;;;6231373;23;20151;-85
2022/12/25 07:07:00;;;;;;;44.07;21.00;;;;;;;;;;6232529;23;20182;-85
2022/12/25 07:09:25;;;;;;;49.80;23.27;;;;;;;;;;6231820;23;20383;-85
2022/12/25 07:11:51;;;;;;;51.57;21.17;;;;;;;;;;6231721;23;20383;-85
2022/12/25 07:14:18;;;;;;;39.73;19.00;;;;;;;;;;6232954;23;20223;-84
2022/12/25 07:16:43;;;;;;;45.00;19.67;;;;;;;;;;6231683;23;20155;-86
2022/12/25 07:19:09;;;;;;;37.10;18.70;;;;;;;;;;6230403;23;20363;-85
2022/12/25 07:21:34;;;;;;;39.10;20.80;;;;;;;;;;6231284;23;20171;-84
2022/12/25 07:24:00;;;;;;;48.47;20.40;;;;;;;;;;6230683;23;20178;-86
2022/12/25 07:26:25;;;;;;;52.43;22.30;;;;;;;;;;6231096;23;20151;-85
2022/12/25 07:28:51;;;;;;;32.90;19.37;;;;;;;;;;6231008;23;20178;-85
2022/12/25 07:31:17;;;;;;;40.50;20.60;;;;;;;;;;6229500;23;20167;-85
2022/12/25 07:33:43;;;;;;;35.77;21.60;;;;;;;;;;6230241;23;20231;-85
2022/12/25 07:36:08;;;;;;;49.50;21.37;;;;;;;;;;6233678;23;21008;-87
2022/12/25 07:38:34;;;;;;;35.57;19.37;;;;;;;;;;6232270;23;20155;-86
2022/12/25 07:41:00;;;;;;;45.60;21.50;;;;;;;;;;6232895;23;20422;-87
2022/12/25 07:43:25;;;;;;;51.23;21.53;;;;;;;;;;6232382;23;20148;-85
2022/12/25 07:45:55;;;;;;;40.37;21.07;;;;;;;;;;6235450;23;20151;-88
2022/12/25 07:48:21;;;;;;;45.30;21.37;;;;;;;;;;6234169;23;20203;-87
2022/12/25 07:50:47;;;;;;;36.83;19.10;;;;;;;;;;6234197;23;20403;-87
2022/12/25 07:53:13;;;;;;;36.40;19.47;;;;;;;;;;6234820;23;20833;-86
2022/12/25 07:55:38;;;;;;;38.63;20.03;;;;;;;;;;6236628;23;20214;-87
2022/12/25 07:58:04;;;;;;;33.30;20.03;;;;;;;;;;6240167;23;20170;-87
2022/12/25 08:00:31;;;;;;;44.33;20.90;;;;;;;;;;6238516;23;20594;-87
2022/12/25 08:02:57;;;;;;;39.27;19.23;;;;;;;;;;6198245;22;20368;-68
2022/12/25 08:05:22;;;;;;;38.57;20.63;;;;;;;;;;6147597;23;20416;-68
2022/12/25 08:07:50;;;;;;;33.40;19.67;;;;;;;;;;6151951;23;20161;-68
2022/12/25 08:10:15;;;;;;;37.93;21.97;;;;;;;;;;6147766;23;20153;-68
2022/12/25 08:12:40;;;;;;;42.10;20.00;;;;;;;;;;6150525;23;20397;-68
2022/12/25 08:15:06;;;;;;;37.50;18.97;;;;;;;;;;6150713;23;20580;-67
2022/12/25 08:17:33;;;;;;;38.30;18.13;;;;;;;;;;6150425;23;20585;-67
2022/12/25 08:19:58;;;;;;;48.90;20.27;;;;;;;;;;6147918;23;20165;-68
2022/12/25 08:22:23;;;;;;;47.40;21.60;;;;;;;;;;6147587;23;20389;-68
2022/12/25 08:24:48;;;;;;;36.63;20.90;;;;;;;;;;6148784;23;20184;-68
2022/12/25 08:27:14;;;;;;;32.83;20.93;;;;;;;;;;6149699;23;20585;-68
2022/12/25 08:29:39;;;;;;;33.40;20.47;;;;;;;;;;6144656;23;20184;-68
2022/12/25 08:32:04;;;;;;;34.90;20.40;;;;;;;;;;6148284;23;20581;-67
2022/12/25 08:34:30;;;;;;;42.40;19.80;;;;;;;;;;6148678;23;20232;-68
2022/12/25 08:36:55;;;;;;;36.23;20.47;;;;;;;;;;6145326;23;20460;-68
2022/12/25 08:39:20;;;;;;;42.30;21.03;;;;;;;;;;6147787;23;20145;-67
2022/12/25 08:41:45;;;;;;;39.27;20.20;;;;;;;;;;6147412;23;20153;-67
2022/12/25 08:44:11;;;;;;;32.83;20.70;;;;;;;;;;6150182;23;20168;-68
2022/12/25 08:46:38;;;;;;;42.13;20.37;;;;;;;;;;6140273;23;20157;-68
2022/12/25 08:49:04;;;;;;;32.50;20.20;;;;;;;;;;6145718;23;20150;-69
2022/12/25 08:51:29;;;;;;;40.67;19.40;;;;;;;;;;6147649;23;20469;-69
2022/12/25 08:53:57;;;;;;;40.37;20.50;;;;;;;;;;6150350;23;20604;-68
2022/12/25 08:56:22;;;;;;;35.33;18.40;;;;;;;;;;6149947;23;20150;-68
2022/12/25 08:58:48;;;;;;;34.63;18.70;;;;;;;;;;6146863;23;20369;-68
2022/12/25 09:01:13;;;;;;;42.53;19.30;;;;;;;;;;6143633;23;20600;-68
2022/12/25 09:03:38;;;;;;;27.47;16.60;;;;;;;;;;6169549;23;20180;-68
2022/12/25 09:06:05;;;;;;;26.90;16.27;;;;;;;;;;6179145;23;20148;-68
2022/12/25 09:08:30;;;;;;;26.50;17.37;;;;;;;;;;6175835;23;20471;-67
2022/12/25 09:10:55;;;;;;;29.97;17.20;;;;;;;;;;6177166;23;20371;-68
2022/12/25 09:13:21;;;;;;;29.23;16.40;;;;;;;;;;6175538;23;20559;-68
2022/12/25 09:15:46;;;;;;;30.50;16.07;;;;;;;;;;6170333;23;20176;-68
2022/12/25 09:18:11;;;;;;;26.70;17.97;;;;;;;;;;6171917;23;20648;-68
2022/12/25 09:20:36;;;;;;;26.33;15.27;;;;;;;;;;6175819;23;20152;-68
2022/12/25 09:23:02;;;;;;;27.43;14.90;;;;;;;;;;6180090;23;20196;-68
2022/12/25 09:25:27;;;;;;;26.27;14.80;;;;;;;;;;6177201;23;20868;-68
2022/12/25 09:27:53;;;;;;;25.10;15.20;;;;;;;;;;6177884;23;20144;-68
2022/12/25 09:30:19;;;;;;;30.97;15.43;;;;;;;;;;6178867;23;20148;-68
2022/12/25 09:32:44;;;;;;;23.57;15.50;;;;;;;;;;6177915;23;20400;-68
2022/12/25 09:35:09;;;;;;;22.90;14.27;;;;;;;;;;6179523;23;20169;-68
2022/12/25 09:37:35;;;;;;;19.13;13.40;;;;;;;;;;6179845;23;20480;-68
2022/12/25 09:40:00;;;;;;;23.67;13.20;;;;;;;;;;6180441;23;20140;-68
2022/12/25 09:42:33;;;;;;;22.97;13.03;;;;;;;;;;6180663;23;20160;-68
2022/12/25 09:45:04;;;;;;;23.40;14.50;;;;;;;;;;6179713;23;20465;-67
2022/12/25 09:47:31;;;;;;;25.60;13.30;;;;;;;;;;6179675;23;20817;-67
2022/12/25 09:50:02;;;;;;;22.30;13.83;;;;;;;;;;6181074;23;20364;-67
2022/12/25 09:52:33;;;;;;;23.57;12.87;;;;;;;;;;6180709;23;20448;-67
2022/12/25 09:55:05;;;;;;;24.47;11.80;;;;;;;;;;6179354;23;20510;-67
2022/12/25 09:57:31;;;;;;;21.73;12.53;;;;;;;;;;6178617;23;20412;-68
2022/12/25 09:59:56;;;;;;;20.07;12.30;;;;;;;;;;6180840;23;20452;-67
2022/12/25 10:02:25;;;;;;;20.20;11.93;;;;;;;;;;6178634;23;20792;-68
2022/12/25 10:04:50;;;;;;;18.13;11.80;;;;;;;;;;6179448;23;20156;-68
2022/12/25 10:07:22;;;;;;;16.63;11.67;;;;;;;;;;6181447;23;20665;-67
2022/12/25 10:09:53;;;;;;;16.80;11.23;;;;;;;;;;6180875;23;20143;-68
2022/12/25 10:12:26;;;;;;;16.97;11.10;;;;;;;;;;6180055;23;20396;-67
2022/12/25 10:14:57;;;;;;;16.73;11.33;;;;;;;;;;6179422;23;20766;-68
2022/12/25 10:17:35;;;;;;;18.70;10.87;;;;;;;;;;6177704;23;20745;-67
2022/12/25 10:20:19;;;;;;;16.90;10.50;;;;;;;;;;6181361;23;20408;-68
2022/12/25 10:22:47;;;;;;;23.27;10.23;;;;;;;;;;6179331;23;20496;-68
2022/12/25 10:25:17;;;;;;;20.97;11.40;;;;;;;;;;6179254;23;20414;-68
2022/12/25 10:27:42;;;;;;;18.80;11.10;;;;;;;;;;6180290;23;20427;-68
2022/12/25 10:30:21;;;;;;;22.27;10.37;;;;;;;;;;6180995;23;20379;-68
2022/12/25 10:32:47;;;;;;;15.60;10.50;;;;;;;;;;6177311;23;20207;-67
2022/12/25 10:35:19;;;;;;;19.47;11.03;;;;;;;;;;6177368;23;20422;-68
2022/12/25 10:37:47;;;;;;;13.20;8.97;;;;;;;;;;6179813;23;20580;-69
2022/12/25 10:40:25;;;;;;;14.63;9.07;;;;;;;;;;6176926;23;20363;-69
2022/12/25 10:43:10;;;;;;;17.80;10.10;;;;;;;;;;6181637;23;20437;-68
2022/12/25 10:45:45;;;;;;;15.87;10.10;;;;;;;;;;6179852;23;20352;-68
2022/12/25 10:48:15;;;;;;;21.93;9.67;;;;;;;;;;6177986;23;20386;-69
2022/12/25 10:50:41;;;;;;;17.73;10.13;;;;;;;;;;6180851;23;20374;-68
2022/12/25 10:53:15;;;;;;;17.33;9.87;;;;;;;;;;6178954;23;20396;-68
2022/12/25 10:55:40;;;;;;;17.03;10.53;;;;;;;;;;6180877;23;20407;-68
2022/12/25 10:58:06;;;;;;;18.20;10.20;;;;;;;;;;6180238;23;20447;-68
2022/12/25 11:00:31;;;;;;;17.87;10.47;;;;;;;;;;6178926;23;20172;-68
2022/12/25 11:02:57;;;;;;;16.40;9.57;;;;;;;;;;6179121;23;20233;-68
2022/12/25 11:05:26;;;;;;;19.07;11.20;;;;;;;;;;6178436;23;20541;-68
2022/12/25 11:07:55;;;;;;;17.00;10.13;;;;;;;;;;6178455;23;20476;-68
2022/12/25 11:10:24;;;;;;;16.27;10.60;;;;;;;;;;6178101;23;20386;-68
2022/12/25 11:12:49;;;;;;;15.43;11.00;;;;;;;;;;6178796;23;20407;-68
2022/12/25 11:15:30;;;;;;;13.23;9.70;;;;;;;;;;6180511;23;20434;-68
2022/12/25 11:17:55;;;;;;;14.03;9.63;;;;;;;;;;6179119;23;20195;-68
2022/12/25 11:20:21;;;;;;;16.90;10.13;;;;;;;;;;6179292;23;20717;-69
2022/12/25 11:22:47;;;;;;;18.10;10.73;;;;;;;;;;6178105;23;20177;-68
2022/12/25 11:25:13;;;;;;;18.87;10.73;;;;;;;;;;6181163;23;20372;-67
2022/12/25 11:27:38;;;;;;;18.83;10.27;;;;;;;;;;6179274;23;20380;-67
2022/12/25 11:30:04;;;;;;;18.20;9.57;;;;;;;;;;6182214;23;20282;-67
2022/12/25 11:32:42;;;;;;;12.37;8.73;;;;;;;;;;6181270;23;20619;-68
2022/12/25 11:35:12;;;;;;;15.80;9.80;;;;;;;;;;6183093;23;20164;-67
2022/12/25 11:37:38;;;;;;;18.07;9.90;;;;;;;;;;6179846;23;20371;-68
2022/12/25 11:40:04;;;;;;;11.97;8.60;;;;;;;;;;6182328;23;20360;-68
2022/12/25 11:42:38;;;;;;;21.40;10.50;;;;;;;;;;6181137;23;20734;-67
2022/12/25 11:45:23;;;;;;;12.93;9.30;;;;;;;;;;6183932;23;20368;-70
2022/12/25 11:47:54;;;;;;;13.97;9.03;;;;;;;;;;6182587;23;20371;-67
2022/12/25 11:50:37;;;;;;;13.20;8.80;;;;;;;;;;6182066;23;20387;-68
2022/12/25 11:53:04;;;;;;;16.00;8.87;;;;;;;;;;6183358;23;20429;-68
2022/12/25 11:55:43;;;;;;;13.80;7.97;;;;;;;;;;6181858;23;20427;-68
2022/12/25 11:58:17;;;;;;;12.33;8.60;;;;;;;;;;6183082;23;20368;-68
2022/12/25 12:00:44;;;;;;;14.37;9.20;;;;;;;;;;6183879;23;20363;-68
2022/12/25 12:03:13;;;;;;;10.70;8.13;;;;;;;;;;6182209;23;20403;-68
2022/12/25 12:05:43;;;;;;;11.23;8.50;;;;;;;;;;6182284;23;20374;-68
2022/12/25 12:08:09;;;;;;;12.97;8.40;;;;;;;;;;6181969;23;20763;-68
2022/12/25 12:10:53;;;;;;;14.50;8.43;;;;;;;;;;6181477;23;20873;-68
2022/12/25 12:13:22;;;;;;;13.30;8.00;;;;;;;;;;6183381;23;20387;-68
2022/12/25 12:15:49;;;;;;;10.73;7.83;;;;;;;;;;6183596;23;20634;-68
2022/12/25 12:18:20;;;;;;;12.07;7.83;;;;;;;;;;6180823;23;20384;-68
2022/12/25 12:20:56;;;;;;;14.37;7.53;;;;;;;;;;6183658;23;20364;-67
2022/12/25 12:23:21;;;;;;;13.67;7.90;;;;;;;;;;6184242;23;20384;-68
2022/12/25 12:25:48;;;;;;;18.00;8.07;;;;;;;;;;6182904;23;20551;-68
2022/12/25 12:28:24;;;;;;;13.80;6.77;;;;;;;;;;6181666;23;20156;-68
2022/12/25 12:30:57;;;;;;;11.87;7.97;;;;;;;;;;6180594;23;20533;-68
2022/12/25 12:33:25;;;;;;;11.97;8.03;;;;;;;;;;6182590;23;20414;-68
2022/12/25 12:35:51;;;;;;;9.87;7.20;;;;;;;;;;6183343;23;20403;-67
2022/12/25 12:38:18;;;;;;;14.10;8.80;;;;;;;;;;6180666;23;20450;-67
2022/12/25 12:40:57;;;;;;;12.37;7.80;;;;;;;;;;6180784;23;20219;-69
2022/12/25 12:43:35;;;;;;;14.00;8.00;;;;;;;;;;6179437;23;20747;-67
2022/12/25 12:46:02;;;;;;;16.17;8.10;;;;;;;;;;6182528;23;20379;-66
2022/12/25 12:48:28;;;;;;;9.90;6.60;;;;;;;;;;6180316;23;20375;-69
2022/12/25 12:51:01;;;;;;;8.80;6.67;;;;;;;;;;6180541;23;20388;-69
2022/12/25 12:53:28;;;;;;;11.70;7.83;;;;;;;;;;6180243;23;20396;-69
2022/12/25 12:55:54;;;;;;;9.90;7.43;;;;;;;;;;6181772;23;20454;-70
2022/12/25 12:58:29;;;;;;;13.97;8.83;;;;;;;;;;6180198;23;20372;-70
2022/12/25 13:01:07;;;;;;;17.80;8.00;;;;;;;;;;6179337;23;20160;-68
2022/12/25 13:03:32;;;;;;;16.10;7.70;;;;;;;;;;6180646;23;20399;-68
2022/12/25 13:06:00;;;;;;;14.83;8.40;;;;;;;;;;6181629;23;20378;-68
2022/12/25 13:08:32;;;;;;;16.93;7.90;;;;;;;;;;6181406;23;20153;-68
2022/12/25 13:11:07;;;;;;;12.90;7.20;;;;;;;;;;6180076;23;20873;-68
2022/12/25 13:13:38;;;;;;;11.50;7.77;;;;;;;;;;6179502;23;20750;-68
2022/12/25 13:16:05;;;;;;;11.77;7.37;;;;;;;;;;6181568;23;20422;-68
2022/12/25 13:18:31;;;;;;;12.13;8.13;;;;;;;;;;6180779;23;20364;-68
2022/12/25 13:20:58;;;;;;;13.10;7.80;;;;;;;;;;6180947;23;20372;-68
2022/12/25 13:23:27;;;;;;;11.40;8.17;;;;;;;;;;6181635;23;20475;-68
2022/12/25 13:25:57;;;;;;;12.30;7.27;;;;;;;;;;6180232;23;20387;-68
2022/12/25 13:28:32;;;;;;;12.30;6.80;;;;;;;;;;6179323;23;20395;-68
2022/12/25 13:31:05;;;;;;;11.40;6.90;;;;;;;;;;6179364;23;20829;-68
2022/12/25 13:33:30;;;;;;;10.30;7.13;;;;;;;;;;6180045;23;20491;-68
2022/12/25 13:35:55;;;;;;;13.70;7.63;;;;;;;;;;6178411;23;20431;-68
2022/12/25 13:38:22;;;;;;;7.43;6.57;;;;;;;;;;6180617;23;20176;-68
2022/12/25 13:43:35;;;;;;;9.30;5.70;;;;;;;;;;6181500;23;20466;-68
2022/12/25 13:46:00;;;;;;;9.23;6.30;;;;;;;;;;6177278;23;20459;-69
2022/12/25 13:48:25;;;;;;;11.10;5.80;;;;;;;;;;6180550;23;20501;-70
2022/12/25 13:50:58;;;;;;;9.50;5.57;;;;;;;;;;6178770;23;20227;-68
2022/12/25 13:53:23;;;;;;;9.77;5.63;;;;;;;;;;6178287;23;20192;-68
2022/12/25 13:55:53;;;;;;;8.00;6.40;;;;;;;;;;6180667;23;20896;-68
2022/12/25 13:58:26;;;;;;;8.10;6.10;;;;;;;;;;6179179;23;20156;-68
2022/12/25 14:00:52;;;;;;;9.23;5.40;;;;;;;;;;6179728;23;20376;-68
2022/12/25 14:03:20;;;;;;;11.33;5.20;;;;;;;;;;6178775;23;20416;-68
2022/12/25 14:05:53;;;;;;;9.13;5.80;;;;;;;;;;6217244;22;21030;-76
2022/12/25 14:08:20;;;;;;;8.90;5.93;;;;;;;;;;6270494;22;20350;-76
2022/12/25 14:10:48;;;;;;;10.53;5.10;;;;;;;;;;6270343;22;20369;-76
2022/12/25 14:13:14;;;;;;;8.10;5.27;;;;;;;;;;6270413;22;20774;-77
2022/12/25 14:15:40;;;;;;;9.10;5.63;;;;;;;;;;6255873;22;20453;-76
2022/12/25 14:18:06;;;;;;;7.87;4.97;;;;;;;;;;6238353;23;20379;-76
2022/12/25 14:20:36;;;;;;;4.50;4.10;;;;;;;;;;6239848;23;20392;-76
2022/12/25 14:23:03;;;;;;;7.90;4.87;;;;;;;;;;6241632;22;20143;-77
2022/12/25 14:25:55;;;;;;;8.97;4.87;;;;;;;;;;6240166;22;20397;-76
2022/12/25 14:28:23;;;;;;;8.77;5.60;;;;;;;;;;6258391;22;20857;-76
2022/12/25 14:30:49;;;;;;;8.90;6.13;;;;;;;;;;6239989;23;20386;-76
2022/12/25 14:33:16;;;;;;;9.77;5.50;;;;;;;;;;6239887;22;20373;-76
2022/12/25 14:35:42;;;;;;;9.70;5.20;;;;;;;;;;6237936;22;20191;-76
2022/12/25 14:38:22;;;;;;;11.03;5.30;;;;;;;;;;6240777;22;20366;-76
2022/12/25 14:40:56;;;;;;;9.37;5.03;;;;;;;;;;6236300;22;20203;-76
2022/12/25 14:43:23;;;;;;;13.83;5.87;;;;;;;;;;6241239;22;20910;-77
2022/12/25 14:45:59;;;;;;;6.80;4.23;;;;;;;;;;6237543;22;20894;-76
2022/12/25 14:48:26;;;;;;;9.70;4.77;;;;;;;;;;6240737;22;20453;-76
2022/12/25 14:51:08;;;;;;;8.37;4.67;;;;;;;;;;6238589;23;20385;-76
2022/12/25 14:53:44;;;;;;;6.63;4.00;;;;;;;;;;6239723;23;20746;-76
2022/12/25 14:56:14;;;;;;;6.80;4.03;;;;;;;;;;6239726;22;20429;-77
2022/12/25 14:58:41;;;;;;;10.20;4.33;;;;;;;;;;6240768;22;20392;-76
2022/12/25 15:01:17;;;;;;;6.50;4.40;;;;;;;;;;6239506;23;20436;-76
2022/12/25 15:03:42;;;;;;;6.30;4.47;;;;;;;;;;6240090;22;20354;-76
2022/12/25 15:06:19;;;;;;;4.53;3.60;;;;;;;;;;6241332;22;20508;-76
2022/12/25 15:08:58;;;;;;;7.63;4.17;;;;;;;;;;6237082;23;20157;-76
2022/12/25 15:11:23;;;;;;;8.80;5.83;;;;;;;;;;6237993;23;20460;-76
2022/12/25 15:13:49;;;;;;;8.17;4.87;;;;;;;;;;6241547;23;20390;-75
2022/12/25 15:16:17;;;;;;;11.27;6.03;;;;;;;;;;6240921;22;20175;-76
2022/12/25 15:18:43;;;;;;;6.20;4.80;;;;;;;;;;6239490;22;20222;-77
2022/12/25 15:21:25;;;;;;;10.47;5.87;;;;;;;;;;6240873;22;20827;-76
2022/12/25 15:23:54;;;;;;;7.97;5.23;;;;;;;;;;6241146;22;20413;-78
2022/12/25 15:26:19;;;;;;;6.60;5.20;;;;;;;;;;6240348;22;20387;-76
2022/12/25 15:28:44;;;;;;;7.30;4.70;;;;;;;;;;6238809;23;20378;-77
2022/12/25 15:31:18;;;;;;;9.27;5.60;;;;;;;;;;6239967;22;20201;-76
2022/12/25 15:33:43;;;;;;;12.83;5.50;;;;;;;;;;6238839;23;20155;-76
2022/12/25 15:36:09;;;;;;;10.37;6.20;;;;;;;;;;6240060;22;20421;-76
2022/12/25 15:38:35;;;;;;;10.77;5.70;;;;;;;;;;6238109;23;20143;-76
2022/12/25 15:41:01;;;;;;;7.70;5.00;;;;;;;;;;6239339;23;20273;-75
2022/12/25 15:43:26;;;;;;;7.90;4.80;;;;;;;;;;6239078;23;20836;-75
2022/12/25 15:45:52;;;;;;;9.80;5.30;;;;;;;;;;6240735;22;20519;-75
2022/12/25 15:48:17;;;;;;;7.03;5.00;;;;;;;;;;6240318;22;20147;-75
2022/12/25 15:50:43;;;;;;;10.40;5.00;;;;;;;;;;6239192;23;20158;-75
2022/12/25 15:53:09;;;;;;;7.00;4.60;;;;;;;;;;6239510;23;20155;-76
2022/12/25 15:55:35;;;;;;;8.80;5.27;;;;;;;;;;6240158;22;20622;-75
2022/12/25 15:58:00;;;;;;;6.37;4.73;;;;;;;;;;6239242;23;20382;-75
2022/12/25 16:00:26;;;;;;;7.70;4.60;;;;;;;;;;6239907;22;20366;-75
2022/12/25 16:02:52;;;;;;;6.00;4.87;;;;;;;;;;6239679;23;20579;-75
2022/12/25 16:05:17;;;;;;;8.43;5.90;;;;;;;;;;6238167;22;20229;-75
2022/12/25 16:07:42;;;;;;;7.27;5.50;;;;;;;;;;6240578;23;20536;-75
2022/12/25 16:10:15;;;;;;;7.57;5.70;;;;;;;;;;6241103;23;20156;-75
2022/12/25 16:12:41;;;;;;;9.37;6.20;;;;;;;;;;6241044;22;20197;-76